sensor_id;sensor_type;location;lat;lon;timestamp;pressure;altitude;pressure_sealevel;temperature;humidity
44044;BME280;29709;52.396;16.796;2023-03-26T00:02:34;100301.99;;;9.45;79.59
44044;BME280;29709;52.396;16.796;2023-03-26T00:06:02;100303.55;;;9.39;79.64
44044;BME280;29709;52.396;16.796;2023-03-26T00:09:19;100299.96;;;9.31;79.49
44044;BME280;29709;52.396;16.796;2023-03-26T00:12:32;100312.46;;;9.25;79.55
44044;BME280;29709;52.396;16.796;2023-03-26T00:15:45;100318.29;;;9.14;80.26
44044;BME280;29709;52.396;16.796;2023-03-26T00:18:59;100319.14;;;9.14;80.54
44044;BME280;29709;52.396;16.796;2023-03-26T00:22:14;100302.19;;;9.11;80.57
44044;BME280;29709;52.396;16.796;2023-03-26T00:25:29;100297.20;;;9.06;81.01
44044;BME280;29709;52.396;16.796;2023-03-26T00:28:45;100290.72;;;9.07;80.72
44044;BME280;29709;52.396;16.796;2023-03-26T00:32:02;100281.10;;;9.03;81.24
44044;BME280;29709;52.396;16.796;2023-03-26T00:35:16;100286.09;;;9.00;81.46
44044;BME280;29709;52.396;16.796;2023-03-26T00:38:30;100282.66;;;8.98;81.55
44044;BME280;29709;52.396;16.796;2023-03-26T00:41:50;100273.05;;;8.93;81.45
44044;BME280;29709;52.396;16.796;2023-03-26T00:45:07;100272.36;;;8.91;81.73
44044;BME280;29709;52.396;16.796;2023-03-26T00:48:22;100273.58;;;8.89;81.62
44044;BME280;29709;52.396;16.796;2023-03-26T00:51:35;100259.51;;;8.84;81.47
44044;BME280;29709;52.396;16.796;2023-03-26T00:54:51;100265.17;;;8.82;81.74
44044;BME280;29709;52.396;16.796;2023-03-26T00:58:04;100267.40;;;8.79;81.92
44044;BME280;29709;52.396;16.796;2023-03-26T01:01:22;100263.80;;;8.78;81.83
44044;BME280;29709;52.396;16.796;2023-03-26T01:04:45;100257.47;;;8.78;82.23
44044;BME280;29709;52.396;16.796;2023-03-26T01:08:02;100258.66;;;8.83;81.71
44044;BME280;29709;52.396;16.796;2023-03-26T01:11:23;100249.26;;;8.86;82.02
44044;BME280;29709;52.396;16.796;2023-03-26T01:14:40;100255.07;;;8.91;81.99
44044;BME280;29709;52.396;16.796;2023-03-26T01:17:54;100248.06;;;8.96;81.51
44044;BME280;29709;52.396;16.796;2023-03-26T01:21:18;100250.94;;;8.95;81.56
44044;BME280;29709;52.396;16.796;2023-03-26T01:24:34;100258.32;;;8.94;81.35
44044;BME280;29709;52.396;16.796;2023-03-26T01:27:49;100255.58;;;8.94;81.46
44044;BME280;29709;52.396;16.796;2023-03-26T01:41:39;100263.97;;;8.93;82.20
44044;BME280;29709;52.396;16.796;2023-03-26T01:45:04;100256.60;;;8.93;82.32
44044;BME280;29709;52.396;16.796;2023-03-26T01:48:20;100258.13;;;8.96;82.47
44044;BME280;29709;52.396;16.796;2023-03-26T01:51:40;100251.30;;;9.00;82.49
44044;BME280;29709;52.396;16.796;2023-03-26T01:54:55;100249.74;;;9.06;82.34
44044;BME280;29709;52.396;16.796;2023-03-26T02:08:36;100241.52;;;9.06;81.67
44044;BME280;29709;52.396;16.796;2023-03-26T02:11:50;100238.28;;;9.02;81.58
44044;BME280;29709;52.396;16.796;2023-03-26T02:15:05;100242.91;;;9.02;81.90
44044;BME280;29709;52.396;16.796;2023-03-26T02:18:19;100212.61;;;8.87;81.63
44044;BME280;29709;52.396;16.796;2023-03-26T02:21:36;100240.00;;;9.11;81.34
44044;BME280;29709;52.396;16.796;2023-03-26T02:24:49;100242.20;;;9.16;81.04
44044;BME280;29709;52.396;16.796;2023-03-26T02:28:03;100238.10;;;9.20;80.79
44044;BME280;29709;52.396;16.796;2023-03-26T02:31:17;100239.63;;;9.22;80.55
44044;BME280;29709;52.396;16.796;2023-03-26T02:34:31;100228.67;;;9.22;80.32
44044;BME280;29709;52.396;16.796;2023-03-26T02:37:44;100239.46;;;9.24;80.36
44044;BME280;29709;52.396;16.796;2023-03-26T02:40:59;100238.60;;;9.23;80.07
44044;BME280;29709;52.396;16.796;2023-03-26T02:44:12;100233.48;;;9.20;80.25
44044;BME280;29709;52.396;16.796;2023-03-26T02:47:26;100225.92;;;9.22;79.80
44044;BME280;29709;52.396;16.796;2023-03-26T02:50:40;100243.59;;;9.20;80.82
44044;BME280;29709;52.396;16.796;2023-03-26T02:53:54;100235.51;;;9.26;80.15
44044;BME280;29709;52.396;16.796;2023-03-26T02:57:03;100242.20;;;9.24;79.86
44044;BME280;29709;52.396;16.796;2023-03-26T03:00:17;100236.40;;;9.19;79.91
44044;BME280;29709;52.396;16.796;2023-03-26T03:03:34;100233.12;;;9.15;79.69
44044;BME280;29709;52.396;16.796;2023-03-26T03:06:49;100226.11;;;9.13;79.64
44044;BME280;29709;52.396;16.796;2023-03-26T03:10:10;100233.30;;;9.14;79.69
44044;BME280;29709;52.396;16.796;2023-03-26T03:13:26;100227.46;;;9.17;79.56
44044;BME280;29709;52.396;16.796;2023-03-26T03:16:39;100228.67;;;9.14;79.86
44044;BME280;29709;52.396;16.796;2023-03-26T03:19:53;100231.09;;;9.17;79.44
44044;BME280;29709;52.396;16.796;2023-03-26T03:23:06;100230.56;;;9.14;79.97
44044;BME280;29709;52.396;16.796;2023-03-26T03:26:21;100234.16;;;9.14;80.05
44044;BME280;29709;52.396;16.796;2023-03-26T03:29:35;100241.02;;;9.18;79.54
44044;BME280;29709;52.396;16.796;2023-03-26T03:32:49;100239.81;;;9.21;79.51
44044;BME280;29709;52.396;16.796;2023-03-26T03:36:03;100235.37;;;9.20;79.04
44044;BME280;29709;52.396;16.796;2023-03-26T03:39:22;100240.00;;;9.19;79.49
44044;BME280;29709;52.396;16.796;2023-03-26T03:42:36;100241.88;;;9.19;79.36
44044;BME280;29709;52.396;16.796;2023-03-26T03:45:49;100230.20;;;9.25;79.41
44044;BME280;29709;52.396;16.796;2023-03-26T03:49:03;100235.01;;;9.23;79.44
44044;BME280;29709;52.396;16.796;2023-03-26T03:52:16;100249.07;;;9.20;79.41
44044;BME280;29709;52.396;16.796;2023-03-26T03:55:30;100246.51;;;9.18;79.38
44044;BME280;29709;52.396;16.796;2023-03-26T03:58:44;100251.99;;;9.18;79.42
44044;BME280;29709;52.396;16.796;2023-03-26T04:01:59;100242.73;;;9.19;79.43
44044;BME280;29709;52.396;16.796;2023-03-26T04:05:13;100240.84;;;9.20;79.26
44044;BME280;29709;52.396;16.796;2023-03-26T04:08:26;100237.74;;;9.23;78.95
44044;BME280;29709;52.396;16.796;2023-03-26T04:11:39;100244.94;;;9.24;78.61
44044;BME280;29709;52.396;16.796;2023-03-26T04:14:54;100240.14;;;9.26;78.41
44044;BME280;29709;52.396;16.796;2023-03-26T04:18:08;100241.34;;;9.23;78.25
44044;BME280;29709;52.396;16.796;2023-03-26T04:21:27;100248.89;;;9.21;78.26
44044;BME280;29709;52.396;16.796;2023-03-26T04:24:42;100238.28;;;9.18;78.41
44044;BME280;29709;52.396;16.796;2023-03-26T04:27:55;100246.65;;;9.25;78.09
44044;BME280;29709;52.396;16.796;2023-03-26T04:31:19;100243.73;;;9.26;78.05
44044;BME280;29709;52.396;16.796;2023-03-26T04:34:36;100240.98;;;9.26;78.24
44044;BME280;29709;52.396;16.796;2023-03-26T04:37:49;100241.84;;;9.27;77.90
44044;BME280;29709;52.396;16.796;2023-03-26T04:41:02;100238.95;;;9.29;77.96
44044;BME280;29709;52.396;16.796;2023-03-26T04:44:19;100237.73;;;9.31;78.41
44044;BME280;29709;52.396;16.796;2023-03-26T04:47:34;100242.19;;;9.32;78.07
44044;BME280;29709;52.396;16.796;2023-03-26T04:50:50;100235.67;;;9.33;77.26
44044;BME280;29709;52.396;16.796;2023-03-26T04:54:05;100234.64;;;9.26;77.92
44044;BME280;29709;52.396;16.796;2023-03-26T04:57:28;100244.27;;;9.22;77.66
44044;BME280;29709;52.396;16.796;2023-03-26T05:00:45;100243.91;;;9.25;77.68
44044;BME280;29709;52.396;16.796;2023-03-26T05:03:59;100247.69;;;9.24;77.89
44044;BME280;29709;52.396;16.796;2023-03-26T05:07:17;100233.62;;;9.27;77.57
44044;BME280;29709;52.396;16.796;2023-03-26T05:10:31;100236.90;;;9.22;77.31
44044;BME280;29709;52.396;16.796;2023-03-26T05:13:45;100246.83;;;9.23;77.44
44044;BME280;29709;52.396;16.796;2023-03-26T05:16:59;100240.66;;;9.21;77.27
44044;BME280;29709;52.396;16.796;2023-03-26T05:20:21;100245.47;;;9.19;77.07
44044;BME280;29709;52.396;16.796;2023-03-26T05:23:35;100247.53;;;9.17;76.81
44044;BME280;29709;52.396;16.796;2023-03-26T05:26:48;100251.99;;;9.18;76.61
44044;BME280;29709;52.396;16.796;2023-03-26T05:30:03;100256.26;;;9.21;76.58
44044;BME280;29709;52.396;16.796;2023-03-26T05:33:16;100256.26;;;9.21;76.87
44044;BME280;29709;52.396;16.796;2023-03-26T05:36:31;100252.66;;;9.20;76.52
44044;BME280;29709;52.396;16.796;2023-03-26T05:39:44;100250.78;;;9.13;76.18
44044;BME280;29709;52.396;16.796;2023-03-26T05:42:57;100252.34;;;9.07;75.97
44044;BME280;29709;52.396;16.796;2023-03-26T05:46:11;100260.89;;;9.04;76.22
44044;BME280;29709;52.396;16.796;2023-03-26T05:49:24;100263.45;;;9.06;76.15
44044;BME280;29709;52.396;16.796;2023-03-26T05:52:38;100268.79;;;9.07;76.01
44044;BME280;29709;52.396;16.796;2023-03-26T05:55:51;100267.05;;;9.06;76.30
44044;BME280;29709;52.396;16.796;2023-03-26T05:59:09;100265.20;;;9.07;76.18
44044;BME280;29709;52.396;16.796;2023-03-26T06:02:22;100267.59;;;9.10;76.29
44044;BME280;29709;52.396;16.796;2023-03-26T06:05:36;100276.48;;;9.12;76.27
44044;BME280;29709;52.396;16.796;2023-03-26T06:08:51;100282.47;;;9.15;76.55
44044;BME280;29709;52.396;16.796;2023-03-26T06:12:06;100220.15;;;8.77;76.59
44044;BME280;29709;52.396;16.796;2023-03-26T06:15:19;100286.25;;;9.14;76.55
44044;BME280;29709;52.396;16.796;2023-03-26T06:18:33;100287.63;;;9.18;76.34
44044;BME280;29709;52.396;16.796;2023-03-26T06:21:46;100284.04;;;9.18;76.43
44044;BME280;29709;52.396;16.796;2023-03-26T06:24:59;100299.10;;;9.22;76.75
44044;BME280;29709;52.396;16.796;2023-03-26T06:28:13;100301.85;;;9.30;76.38
44044;BME280;29709;52.396;16.796;2023-03-26T06:31:26;100297.40;;;9.29;76.38
44044;BME280;29709;52.396;16.796;2023-03-26T06:34:40;100276.81;;;9.17;76.43
44044;BME280;29709;52.396;16.796;2023-03-26T06:37:54;100305.63;;;9.29;76.50
44044;BME280;29709;52.396;16.796;2023-03-26T06:41:09;100302.36;;;9.42;76.28
44044;BME280;29709;52.396;16.796;2023-03-26T06:44:23;100296.51;;;9.45;76.33
44044;BME280;29709;52.396;16.796;2023-03-26T06:47:36;100302.66;;;9.55;75.92
44044;BME280;29709;52.396;16.796;2023-03-26T06:50:49;100309.00;;;9.64;75.97
44044;BME280;29709;52.396;16.796;2023-03-26T06:54:03;100316.38;;;9.63;75.55
44044;BME280;29709;52.396;16.796;2023-03-26T06:57:16;100313.80;;;9.62;75.88
44044;BME280;29709;52.396;16.796;2023-03-26T07:00:29;100322.04;;;9.70;75.80
44044;BME280;29709;52.396;16.796;2023-03-26T07:03:46;100314.80;;;9.77;75.05
44044;BME280;29709;52.396;16.796;2023-03-26T07:06:59;100333.83;;;9.78;75.20
44044;BME280;29709;52.396;16.796;2023-03-26T07:10:13;100336.76;;;9.77;75.25
44044;BME280;29709;52.396;16.796;2023-03-26T07:13:26;100324.05;;;9.84;75.27
44044;BME280;29709;52.396;16.796;2023-03-26T07:16:40;100325.27;;;9.81;74.95
44044;BME280;29709;52.396;16.796;2023-03-26T07:19:53;100329.37;;;9.86;75.16
44044;BME280;29709;52.396;16.796;2023-03-26T07:23:08;100326.07;;;9.98;75.04
44044;BME280;29709;52.396;16.796;2023-03-26T07:29:52;100337.19;;;10.13;74.81
44044;BME280;29709;52.396;16.796;2023-03-26T07:33:14;100333.59;;;10.12;74.91
44044;BME280;29709;52.396;16.796;2023-03-26T07:48:20;100346.18;;;10.46;73.31
44044;BME280;29709;52.396;16.796;2023-03-26T07:51:33;100346.37;;;10.45;72.63
44044;BME280;29709;52.396;16.796;2023-03-26T07:54:47;100343.46;;;10.38;73.09
44044;BME280;29709;52.396;16.796;2023-03-26T08:01:38;100341.48;;;10.63;72.46
44044;BME280;29709;52.396;16.796;2023-03-26T08:05:01;100339.73;;;10.62;72.41
44044;BME280;29709;52.396;16.796;2023-03-26T08:08:25;100335.64;;;10.58;72.47
44044;BME280;29709;52.396;16.796;2023-03-26T08:18:47;100342.40;;;10.78;72.67
44044;BME280;29709;52.396;16.796;2023-03-26T08:22:10;100338.15;;;10.98;72.43
44044;BME280;29709;52.396;16.796;2023-03-26T08:25:27;100340.30;;;11.11;71.52
44044;BME280;29709;52.396;16.796;2023-03-26T08:28:57;100327.63;;;11.02;70.55
44044;BME280;29709;52.396;16.796;2023-03-26T08:32:18;100338.01;;;10.92;71.35
44044;BME280;29709;52.396;16.796;2023-03-26T08:35:31;100337.96;;;11.00;71.15
44044;BME280;29709;52.396;16.796;2023-03-26T08:38:46;100335.41;;;10.98;71.05
44044;BME280;29709;52.396;16.796;2023-03-26T08:49:11;100336.06;;;11.23;71.04
44044;BME280;29709;52.396;16.796;2023-03-26T09:13:12;100324.44;;;11.74;66.47
44044;BME280;29709;52.396;16.796;2023-03-26T09:26:45;100326.21;;;12.04;65.41
44044;BME280;29709;52.396;16.796;2023-03-26T09:30:14;100320.59;;;11.98;65.25
44044;BME280;29709;52.396;16.796;2023-03-26T09:40:20;100325.83;;;11.93;64.76
44044;BME280;29709;52.396;16.796;2023-03-26T09:54:00;100332.46;;;11.83;65.08
44044;BME280;29709;52.396;16.796;2023-03-26T09:57:22;100319.27;;;11.94;65.39
44044;BME280;29709;52.396;16.796;2023-03-26T10:04:26;100337.07;;;11.68;66.39
44044;BME280;29709;52.396;16.796;2023-03-26T10:14:35;100343.32;;;10.93;71.76
44044;BME280;29709;52.396;16.796;2023-03-26T10:17:59;100341.98;;;10.89;72.39
44044;BME280;29709;52.396;16.796;2023-03-26T10:21:25;100343.74;;;10.82;72.32
44044;BME280;29709;52.396;16.796;2023-03-26T10:38:19;100348.67;;;11.18;73.61
44044;BME280;29709;52.396;16.796;2023-03-26T10:41:47;100350.33;;;11.27;73.25
44044;BME280;29709;52.396;16.796;2023-03-26T10:51:58;100347.02;;;11.32;70.84
44044;BME280;29709;52.396;16.796;2023-03-26T10:55:17;100335.28;;;11.38;69.97
44044;BME280;29709;52.396;16.796;2023-03-26T10:58:31;100331.71;;;11.52;69.82
44044;BME280;29709;52.396;16.796;2023-03-26T11:05:34;100339.98;;;11.67;68.92
44044;BME280;29709;52.396;16.796;2023-03-26T11:15:36;100328.30;;;12.32;67.21
44044;BME280;29709;52.396;16.796;2023-03-26T11:19:00;100324.77;;;12.53;65.54
44044;BME280;29709;52.396;16.796;2023-03-26T11:32:38;100322.34;;;13.00;63.30
44044;BME280;29709;52.396;16.796;2023-03-26T11:36:00;100317.88;;;12.99;63.57
44044;BME280;29709;52.396;16.796;2023-03-26T11:39:22;100319.91;;;13.12;63.87
44044;BME280;29709;52.396;16.796;2023-03-26T11:42:36;100327.73;;;13.09;62.70
44044;BME280;29709;52.396;16.796;2023-03-26T11:45:50;100321.96;;;13.04;62.38
44044;BME280;29709;52.396;16.796;2023-03-26T11:49:08;100318.73;;;13.00;61.86
44044;BME280;29709;52.396;16.796;2023-03-26T11:52:24;100314.38;;;12.91;62.30
44044;BME280;29709;52.396;16.796;2023-03-26T11:55:42;100321.12;;;13.03;63.16
44044;BME280;29709;52.396;16.796;2023-03-26T12:02:36;100328.43;;;12.60;65.31
44044;BME280;29709;52.396;16.796;2023-03-26T12:05:50;100333.89;;;12.38;66.63
44044;BME280;29709;52.396;16.796;2023-03-26T12:12:33;100331.17;;;12.09;69.60
44044;BME280;29709;52.396;16.796;2023-03-26T12:15:48;100330.77;;;12.27;69.37
44044;BME280;29709;52.396;16.796;2023-03-26T12:19:18;100328.97;;;12.34;69.02
44044;BME280;29709;52.396;16.796;2023-03-26T12:22:37;100321.19;;;12.23;69.27
44044;BME280;29709;52.396;16.796;2023-03-26T12:29:18;100331.53;;;11.91;70.21
44044;BME280;29709;52.396;16.796;2023-03-26T12:32:32;100326.10;;;11.83;69.87
44044;BME280;29709;52.396;16.796;2023-03-26T12:35:48;100313.57;;;11.95;69.69
44044;BME280;29709;52.396;16.796;2023-03-26T12:39:19;100314.42;;;11.96;69.75
44044;BME280;29709;52.396;16.796;2023-03-26T12:42:30;100308.24;;;12.08;69.65
44044;BME280;29709;52.396;16.796;2023-03-26T12:45:43;100293.23;;;12.26;69.38
44044;BME280;29709;52.396;16.796;2023-03-26T12:49:05;100289.98;;;12.37;68.38
44044;BME280;29709;52.396;16.796;2023-03-26T12:55:56;100278.59;;;12.76;67.09
44044;BME280;29709;52.396;16.796;2023-03-26T12:59:20;100275.77;;;12.91;66.07
44044;BME280;29709;52.396;16.796;2023-03-26T13:06:09;100275.19;;;13.17;64.23
44044;BME280;29709;52.396;16.796;2023-03-26T13:16:26;100281.05;;;13.28;63.82
44044;BME280;29709;52.396;16.796;2023-03-26T13:19:57;100271.48;;;13.24;61.74
44044;BME280;29709;52.396;16.796;2023-03-26T13:23:22;100262.45;;;13.16;61.89
44044;BME280;29709;52.396;16.796;2023-03-26T13:26:52;100271.85;;;13.21;60.84
44044;BME280;29709;52.396;16.796;2023-03-26T13:30:16;100265.96;;;13.24;61.50
44044;BME280;29709;52.396;16.796;2023-03-26T13:37:10;100272.76;;;12.86;61.25
44044;BME280;29709;52.396;16.796;2023-03-26T13:44:01;100277.60;;;12.62;59.76
44044;BME280;29709;52.396;16.796;2023-03-26T13:47:20;100284.37;;;12.45;59.01
44044;BME280;29709;52.396;16.796;2023-03-26T13:50:39;100285.63;;;12.42;59.33
44044;BME280;29709;52.396;16.796;2023-03-26T13:57:46;100270.50;;;12.38;59.28
44044;BME280;29709;52.396;16.796;2023-03-26T14:07:42;100277.70;;;12.54;59.11
44044;BME280;29709;52.396;16.796;2023-03-26T14:31:35;100282.85;;;12.79;56.49
44044;BME280;29709;52.396;16.796;2023-03-26T14:41:59;100281.52;;;12.53;55.66
44044;BME280;29709;52.396;16.796;2023-03-26T14:52:09;100276.01;;;12.38;56.20
44044;BME280;29709;52.396;16.796;2023-03-26T15:16:10;100280.71;;;12.23;56.63
44044;BME280;29709;52.396;16.796;2023-03-26T15:30:06;100281.96;;;12.21;56.31
44044;BME280;29709;52.396;16.796;2023-03-26T15:40:30;100283.09;;;11.97;56.03
44044;BME280;29709;52.396;16.796;2023-03-26T15:53:59;100273.45;;;11.63;56.58
44044;BME280;29709;52.396;16.796;2023-03-26T15:57:26;100287.66;;;11.52;57.14
44044;BME280;29709;52.396;16.796;2023-03-26T16:00:53;100281.13;;;11.53;57.20
44044;BME280;29709;52.396;16.796;2023-03-26T16:07:45;100263.56;;;11.54;58.11
44044;BME280;29709;52.396;16.796;2023-03-26T16:11:02;100254.45;;;11.53;58.36
44044;BME280;29709;52.396;16.796;2023-03-26T16:14:37;100263.56;;;11.54;58.94
44044;BME280;29709;52.396;16.796;2023-03-26T16:24:34;100264.80;;;11.66;58.67
44044;BME280;29709;52.396;16.796;2023-03-26T16:31:21;100259.02;;;11.61;58.42
44044;BME280;29709;52.396;16.796;2023-03-26T16:34:44;100259.22;;;11.60;58.85
44044;BME280;29709;52.396;16.796;2023-03-26T16:38:04;100258.25;;;11.52;58.89
44044;BME280;29709;52.396;16.796;2023-03-26T16:41:27;100255.03;;;11.49;59.06
44044;BME280;29709;52.396;16.796;2023-03-26T17:15:45;100258.09;;;10.70;60.99
44044;BME280;29709;52.396;16.796;2023-03-26T17:22:36;100264.69;;;10.61;62.27
44044;BME280;29709;52.396;16.796;2023-03-26T17:29:27;100261.49;;;10.50;62.77
44044;BME280;29709;52.396;16.796;2023-03-26T17:43:08;100262.53;;;10.09;63.52
44044;BME280;29709;52.396;16.796;2023-03-26T17:46:37;100267.37;;;9.99;63.64
44044;BME280;29709;52.396;16.796;2023-03-26T17:49:59;100265.36;;;9.93;64.37
44044;BME280;29709;52.396;16.796;2023-03-26T17:56:45;100269.55;;;9.73;65.39
44044;BME280;29709;52.396;16.796;2023-03-26T17:59:59;100258.58;;;9.65;65.88
44044;BME280;29709;52.396;16.796;2023-03-26T18:03:23;100263.02;;;9.66;65.30
44044;BME280;29709;52.396;16.796;2023-03-26T18:17:01;100275.28;;;9.31;65.93
44044;BME280;29709;52.396;16.796;2023-03-26T18:20:22;100276.99;;;9.15;67.38
44044;BME280;29709;52.396;16.796;2023-03-26T18:23:39;100275.63;;;9.03;67.25
44044;BME280;29709;52.396;16.796;2023-03-26T18:30:22;100277.00;;;8.99;67.38
44044;BME280;29709;52.396;16.796;2023-03-26T18:33:43;100273.41;;;8.99;67.13
44044;BME280;29709;52.396;16.796;2023-03-26T18:37:08;100274.26;;;8.91;67.12
44044;BME280;29709;52.396;16.796;2023-03-26T18:40:22;100272.54;;;8.82;67.13
44044;BME280;29709;52.396;16.796;2023-03-26T18:43:36;100281.77;;;8.73;67.85
44044;BME280;29709;52.396;16.796;2023-03-26T18:46:51;100276.46;;;8.71;68.04
44044;BME280;29709;52.396;16.796;2023-03-26T18:50:15;100281.26;;;8.69;67.73
44044;BME280;29709;52.396;16.796;2023-03-26T18:53:39;100275.56;;;8.54;67.70
44044;BME280;29709;52.396;16.796;2023-03-26T18:56:54;100271.97;;;8.46;68.44
44044;BME280;29709;52.396;16.796;2023-03-26T19:00:19;100262.02;;;8.36;68.30
44044;BME280;29709;52.396;16.796;2023-03-26T19:03:35;100271.20;;;8.27;68.35
44044;BME280;29709;52.396;16.796;2023-03-26T19:06:50;100268.80;;;8.24;68.10
44044;BME280;29709;52.396;16.796;2023-03-26T19:13:35;100268.69;;;8.00;68.11
44044;BME280;29709;52.396;16.796;2023-03-26T19:16:56;100271.04;;;7.87;68.24
44044;BME280;29709;52.396;16.796;2023-03-26T19:20:21;100266.88;;;7.74;69.52
44044;BME280;29709;52.396;16.796;2023-03-26T19:23:38;100265.17;;;7.73;70.38
44044;BME280;29709;52.396;16.796;2023-03-26T19:26:54;100270.95;;;7.70;69.69
44044;BME280;29709;52.396;16.796;2023-03-26T19:30:17;100261.20;;;7.68;70.16
44044;BME280;29709;52.396;16.796;2023-03-26T19:33:40;100262.73;;;7.70;70.08
44044;BME280;29709;52.396;16.796;2023-03-26T19:36:58;100266.14;;;7.64;70.03
44044;BME280;29709;52.396;16.796;2023-03-26T19:40:21;100263.19;;;7.58;70.01
44044;BME280;29709;52.396;16.796;2023-03-26T19:43:47;100248.77;;;7.47;70.32
44044;BME280;29709;52.396;16.796;2023-03-26T19:47:04;100243.24;;;7.39;69.85
44044;BME280;29709;52.396;16.796;2023-03-26T19:50:25;100240.33;;;7.33;70.00
44044;BME280;29709;52.396;16.796;2023-03-26T19:53:50;100250.86;;;7.28;70.04
44044;BME280;29709;52.396;16.796;2023-03-26T19:57:03;100252.31;;;7.14;70.29
44044;BME280;29709;52.396;16.796;2023-03-26T20:00:17;100259.75;;;7.04;69.75
44044;BME280;29709;52.396;16.796;2023-03-26T20:03:38;100260.17;;;6.91;71.71
44044;BME280;29709;52.396;16.796;2023-03-26T20:06:52;100260.49;;;6.88;71.46
44044;BME280;29709;52.396;16.796;2023-03-26T20:10:05;100263.75;;;6.91;71.27
44044;BME280;29709;52.396;16.796;2023-03-26T20:13:20;100260.87;;;6.93;70.98
44044;BME280;29709;52.396;16.796;2023-03-26T20:16:33;100263.75;;;6.91;70.48
44044;BME280;29709;52.396;16.796;2023-03-26T20:19:46;100250.34;;;6.80;70.43
44044;BME280;29709;52.396;16.796;2023-03-26T20:23:00;100247.00;;;6.69;70.65
44044;BME280;29709;52.396;16.796;2023-03-26T20:26:14;100250.83;;;6.58;71.33
44044;BME280;29709;52.396;16.796;2023-03-26T20:29:30;100260.48;;;6.52;72.21
44044;BME280;29709;52.396;16.796;2023-03-26T20:32:44;100251.12;;;6.55;72.41
44044;BME280;29709;52.396;16.796;2023-03-26T20:35:58;100260.17;;;6.55;71.78
44044;BME280;29709;52.396;16.796;2023-03-26T20:39:11;100262.37;;;6.52;71.83
44044;BME280;29709;52.396;16.796;2023-03-26T20:42:26;100248.01;;;6.50;71.74
44044;BME280;29709;52.396;16.796;2023-03-26T20:45:39;100242.30;;;6.43;70.87
44044;BME280;29709;52.396;16.796;2023-03-26T20:48:53;100249.55;;;6.34;71.46
44044;BME280;29709;52.396;16.796;2023-03-26T20:52:11;100249.93;;;6.22;72.13
44044;BME280;29709;52.396;16.796;2023-03-26T20:55:27;100256.09;;;6.24;72.62
44044;BME280;29709;52.396;16.796;2023-03-26T20:58:42;100254.09;;;6.26;72.11
44044;BME280;29709;52.396;16.796;2023-03-26T21:01:56;100255.39;;;6.22;71.73
44044;BME280;29709;52.396;16.796;2023-03-26T21:05:12;100254.27;;;6.15;71.96
44044;BME280;29709;52.396;16.796;2023-03-26T21:08:37;100251.70;;;6.13;71.81
44044;BME280;29709;52.396;16.796;2023-03-26T21:15:18;100259.20;;;6.11;71.24
44044;BME280;29709;52.396;16.796;2023-03-26T21:18:31;100260.73;;;5.96;71.97
44044;BME280;29709;52.396;16.796;2023-03-26T21:21:50;100268.12;;;5.76;71.63
44044;BME280;29709;52.396;16.796;2023-03-26T21:31:58;100271.42;;;5.70;73.59
44044;BME280;29709;52.396;16.796;2023-03-26T21:35:13;100267.96;;;5.77;75.01
44044;BME280;29709;52.396;16.796;2023-03-26T21:38:28;100268.66;;;5.79;74.32
44044;BME280;29709;52.396;16.796;2023-03-26T21:41:48;100270.69;;;5.77;75.66
44044;BME280;29709;52.396;16.796;2023-03-26T21:45:06;100271.23;;;5.81;74.88
44044;BME280;29709;52.396;16.796;2023-03-26T21:48:23;100276.41;;;5.84;76.03
44044;BME280;29709;52.396;16.796;2023-03-26T21:51:40;100268.23;;;5.84;77.16
44044;BME280;29709;52.396;16.796;2023-03-26T21:54:55;100268.34;;;5.83;77.57
44044;BME280;29709;52.396;16.796;2023-03-26T22:08:30;100277.70;;;5.80;78.51
44044;BME280;29709;52.396;16.796;2023-03-26T22:11:48;100275.13;;;5.78;78.67
44044;BME280;29709;52.396;16.796;2023-03-26T22:15:05;100269.83;;;5.77;78.37
44044;BME280;29709;52.396;16.796;2023-03-26T22:18:18;100290.08;;;5.74;78.23
44044;BME280;29709;52.396;16.796;2023-03-26T22:21:37;100289.22;;;5.74;77.81
44044;BME280;29709;52.396;16.796;2023-03-26T22:24:51;100287.93;;;5.68;77.69
44044;BME280;29709;52.396;16.796;2023-03-26T22:28:05;100289.96;;;5.66;77.54
44044;BME280;29709;52.396;16.796;2023-03-26T22:31:18;100291.12;;;5.64;77.77
44044;BME280;29709;52.396;16.796;2023-03-26T22:34:31;100287.12;;;5.58;77.56
44044;BME280;29709;52.396;16.796;2023-03-26T22:37:46;100297.31;;;5.56;77.34
44044;BME280;29709;52.396;16.796;2023-03-26T22:41:00;100293.03;;;5.54;77.02
44044;BME280;29709;52.396;16.796;2023-03-26T22:44:14;100293.30;;;5.50;76.98
44044;BME280;29709;52.396;16.796;2023-03-26T22:47:29;100299.06;;;5.47;76.55
44044;BME280;29709;52.396;16.796;2023-03-26T22:54:11;100286.16;;;5.40;75.90
44044;BME280;29709;52.396;16.796;2023-03-26T22:57:24;100291.22;;;5.35;75.75
44044;BME280;29709;52.396;16.796;2023-03-26T23:00:38;100297.09;;;5.30;75.77
44044;BME280;29709;52.396;16.796;2023-03-26T23:03:53;100291.78;;;5.29;75.39
44044;BME280;29709;52.396;16.796;2023-03-26T23:07:10;100293.09;;;5.25;75.03
44044;BME280;29709;52.396;16.796;2023-03-26T23:10:24;100289.08;;;5.19;75.15
44044;BME280;29709;52.396;16.796;2023-03-26T23:13:37;100293.67;;;5.18;74.76
44044;BME280;29709;52.396;16.796;2023-03-26T23:16:50;100301.28;;;5.15;74.72
44044;BME280;29709;52.396;16.796;2023-03-26T23:20:05;100310.02;;;5.18;74.63
44044;BME280;29709;52.396;16.796;2023-03-26T23:23:28;100315.77;;;5.15;74.35
44044;BME280;29709;52.396;16.796;2023-03-26T23:26:42;100326.51;;;5.17;74.40
44044;BME280;29709;52.396;16.796;2023-03-26T23:29:56;100330.95;;;5.18;73.96
44044;BME280;29709;52.396;16.796;2023-03-26T23:33:09;100330.95;;;5.18;74.18